createdAt,value
2023-02-03T00:00:08.220Z,74.19
2023-02-03T00:02:39.154Z,74.04
2023-02-03T00:05:07.807Z,73.83
2023-02-03T00:07:37.824Z,73.76
2023-02-03T00:10:07.448Z,72.93
2023-02-03T00:12:35.573Z,73.73
2023-02-03T00:15:03.512Z,73.27
2023-02-03T00:17:31.534Z,73.75
2023-02-03T00:19:59.561Z,74.04
2023-02-03T00:22:27.501Z,74.15
2023-02-03T00:24:55.447Z,73.63
2023-02-03T00:27:23.310Z,74.08
2023-02-03T00:29:51.371Z,75.11
2023-02-03T00:32:19.545Z,74.58
2023-02-03T00:34:47.927Z,74.91
2023-02-03T00:37:16.337Z,75.25
2023-02-03T00:39:44.212Z,74.73
2023-02-03T00:42:12.181Z,76.65
2023-02-03T00:44:40.058Z,75.33
2023-02-03T00:47:07.987Z,75.96
2023-02-03T00:49:35.985Z,76.82
2023-02-03T00:52:04.866Z,78.28
2023-02-03T00:54:33.841Z,79.58
2023-02-03T00:57:01.960Z,78.41
2023-02-03T00:59:29.910Z,80.15
2023-02-03T01:01:57.914Z,80.01
2023-02-03T01:04:25.939Z,79.86
2023-02-03T01:06:57.719Z,80.43
2023-02-03T01:09:26.433Z,79.63
2023-02-03T01:11:55.386Z,80.14
2023-02-03T01:14:23.303Z,79.15
2023-02-03T01:16:51.323Z,79.15
2023-02-03T01:19:19.485Z,80.36
2023-02-03T01:21:47.393Z,80.84
2023-02-03T01:24:15.375Z,81.18
2023-02-03T01:26:43.461Z,81.40
2023-02-03T01:29:11.635Z,81.97
2023-02-03T01:31:42.566Z,82.00
2023-02-03T01:34:16.592Z,82.88
2023-02-03T01:36:46.987Z,83.02
2023-02-03T01:39:15.157Z,83.01
2023-02-03T01:41:43.399Z,82.79
2023-02-03T01:44:41.072Z,81.76
2023-02-03T01:47:30.738Z,81.56
2023-02-03T01:50:31.095Z,80.88
2023-02-03T01:53:08.977Z,80.12
2023-02-03T01:55:44.086Z,78.66
2023-02-03T01:58:20.556Z,79.50
2023-02-03T02:00:50.132Z,79.43
2023-02-03T02:03:23.549Z,78.63
2023-02-03T02:06:01.153Z,78.50
2023-02-03T02:08:30.879Z,78.15
2023-02-03T02:11:02.271Z,77.96
2023-02-03T02:13:35.229Z,77.71
2023-02-03T02:16:24.190Z,77.71
2023-02-03T02:18:55.098Z,77.26
2023-02-03T02:22:08.045Z,77.78
2023-02-03T02:24:38.857Z,77.62
2023-02-03T02:27:19.017Z,78.03
2023-02-03T02:30:08.322Z,78.20
2023-02-03T02:32:45.283Z,78.02
2023-02-03T02:35:18.630Z,78.90
2023-02-03T02:38:22.843Z,77.87
2023-02-03T02:41:14.534Z,78.16
2023-02-03T02:43:51.995Z,78.15
2023-02-03T02:46:31.150Z,78.25
2023-02-03T02:49:33.332Z,79.00
2023-02-03T02:52:04.961Z,77.99
2023-02-03T02:54:37.963Z,77.73
2023-02-03T02:58:44.150Z,77.31
2023-02-03T03:01:13.578Z,77.43
2023-02-03T03:03:47.981Z,76.10
2023-02-03T03:06:24.049Z,75.74
2023-02-03T03:08:55.786Z,75.70
2023-02-03T03:11:28.125Z,74.66
2023-02-03T03:13:59.290Z,74.78
2023-02-03T03:16:30.268Z,74.56
2023-02-03T03:19:02.655Z,73.77
2023-02-03T03:21:37.408Z,72.83
2023-02-03T03:24:10.501Z,72.70
2023-02-03T03:26:50.605Z,72.76
2023-02-03T03:29:25.048Z,73.27
2023-02-03T03:31:54.110Z,72.83
2023-02-03T03:34:22.541Z,72.04
2023-02-03T03:37:02.087Z,72.61
2023-02-03T03:39:45.759Z,72.44
2023-02-03T03:42:29.583Z,71.54
2023-02-03T03:45:23.689Z,72.26
2023-02-03T03:48:00.143Z,72.09
2023-02-03T03:50:33.028Z,71.06
2023-02-03T03:53:21.412Z,71.98
2023-02-03T03:55:52.969Z,70.53
2023-02-03T03:58:27.231Z,70.65
2023-02-03T04:01:00.146Z,70.25
2023-02-03T04:03:42.043Z,70.09
2023-02-03T04:06:10.031Z,70.64
2023-02-03T04:08:39.568Z,70.77
2023-02-03T04:11:08.676Z,70.00
2023-02-03T04:13:36.523Z,72.59
2023-02-03T04:16:04.874Z,71.62
2023-02-03T04:18:32.929Z,71.65
2023-02-03T04:21:01.061Z,71.59
2023-02-03T04:23:28.980Z,71.65
2023-02-03T04:25:56.993Z,72.97
2023-02-03T04:28:24.971Z,72.80
2023-02-03T04:30:52.936Z,73.12
2023-02-03T04:33:20.853Z,74.02
2023-02-03T04:35:50.720Z,73.67
2023-02-03T04:38:18.853Z,73.20
2023-02-03T04:40:46.974Z,73.05
2023-02-03T04:43:15.321Z,73.51
2023-02-03T04:45:43.364Z,73.51
2023-02-03T04:48:11.607Z,73.55
2023-02-03T04:50:39.802Z,73.00
2023-02-03T04:53:10.078Z,73.33
2023-02-03T04:55:38.072Z,74.00
2023-02-03T04:58:06.412Z,74.13
2023-02-03T05:00:34.250Z,73.62
2023-02-03T05:03:02.396Z,73.70
2023-02-03T05:05:30.666Z,73.88
2023-02-03T05:07:58.637Z,73.19
2023-02-03T05:10:26.867Z,73.79
2023-02-03T05:12:55.073Z,73.95
2023-02-03T05:15:23.124Z,73.96
2023-02-03T05:17:55.102Z,74.76
2023-02-03T05:20:23.186Z,73.40
2023-02-03T05:22:51.290Z,74.66
2023-02-03T05:25:19.276Z,73.27
2023-02-03T05:27:47.422Z,73.62
2023-02-03T05:30:15.406Z,73.68
2023-02-03T05:32:43.379Z,73.74
2023-02-03T05:35:11.205Z,73.59
2023-02-03T05:37:39.208Z,74.11
2023-02-03T05:40:26.836Z,74.03
2023-02-03T05:42:55.045Z,73.67
2023-02-03T05:45:23.081Z,72.57
2023-02-03T05:47:51.173Z,72.50
2023-02-03T05:50:19.400Z,73.45
2023-02-03T05:52:47.298Z,74.36
2023-02-03T05:55:15.408Z,74.05
2023-02-03T05:57:43.439Z,74.02
2023-02-03T06:00:12.584Z,73.52
2023-02-03T06:02:40.652Z,73.55
2023-02-03T06:05:09.034Z,73.31
2023-02-03T06:07:36.929Z,73.59
2023-02-03T06:10:05.223Z,73.63
2023-02-03T06:12:33.183Z,74.48
2023-02-03T06:15:01.205Z,73.29
2023-02-03T06:17:29.312Z,73.93
2023-02-03T06:19:57.683Z,73.52
2023-02-03T06:22:25.682Z,73.71
2023-02-03T06:24:53.893Z,72.87
2023-02-03T06:27:24.138Z,73.04
2023-02-03T06:29:52.267Z,71.99
2023-02-03T06:32:20.309Z,73.38
2023-02-03T06:34:48.330Z,72.26
2023-02-03T06:37:16.496Z,72.13
2023-02-03T06:39:44.363Z,71.94
2023-02-03T06:42:12.333Z,71.93
2023-02-03T06:44:40.358Z,70.58
2023-02-03T06:47:08.332Z,71.57
2023-02-03T06:49:36.239Z,71.96
2023-02-03T06:52:04.430Z,70.36
2023-02-03T06:54:32.368Z,70.66
2023-02-03T06:57:00.312Z,70.98
2023-02-03T06:59:28.274Z,69.75
2023-02-03T07:01:56.299Z,69.43
2023-02-03T07:04:24.311Z,69.26
2023-02-03T07:06:52.487Z,68.30
2023-02-03T07:09:20.573Z,67.60
2023-02-03T07:11:48.584Z,68.56
2023-02-03T07:14:16.711Z,67.51
2023-02-03T07:16:44.732Z,67.66
2023-02-03T07:19:12.619Z,66.85
2023-02-03T07:21:40.516Z,67.81
2023-02-03T07:24:08.629Z,68.39
2023-02-03T07:26:36.696Z,67.75
2023-02-03T07:29:05.603Z,66.79
2023-02-03T07:31:33.819Z,65.63
2023-02-03T07:34:03.004Z,66.25
2023-02-03T07:36:31.401Z,65.07
2023-02-03T07:38:59.779Z,65.48
2023-02-03T07:41:27.719Z,63.50
2023-02-03T07:43:55.785Z,61.98
2023-02-03T07:46:23.762Z,56.57
2023-02-03T07:48:51.777Z,48.38
2023-02-03T07:51:19.785Z,44.67
2023-02-03T07:53:47.762Z,40.32
2023-02-03T07:56:15.891Z,38.70
2023-02-03T07:58:43.910Z,39.60
2023-02-03T08:01:15.582Z,43.09
2023-02-03T08:03:43.923Z,46.07
2023-02-03T08:06:12.327Z,47.81
2023-02-03T08:08:41.466Z,49.29
2023-02-03T08:11:10.066Z,51.08
2023-02-03T08:13:38.066Z,52.50
2023-02-03T08:16:06.626Z,54.03
2023-02-03T08:18:34.513Z,55.30
2023-02-03T08:21:04.421Z,56.29
2023-02-03T08:23:32.551Z,57.55
2023-02-03T08:26:00.749Z,55.33
2023-02-03T08:28:28.934Z,53.73
2023-02-03T08:30:57.947Z,54.58
2023-02-03T08:33:26.018Z,54.04
2023-02-03T08:35:53.991Z,54.85
2023-02-03T08:38:22.086Z,54.43
2023-02-03T08:40:50.130Z,55.12
2023-02-03T08:43:18.477Z,53.51
2023-02-03T08:45:46.530Z,53.69
2023-02-03T08:48:14.729Z,51.86
2023-02-03T08:50:44.820Z,50.76
2023-02-03T08:53:13.156Z,50.34
2023-02-03T08:55:41.456Z,49.52
2023-02-03T08:58:09.763Z,47.40
2023-02-03T09:00:38.077Z,48.23
2023-02-03T09:03:06.270Z,48.74
2023-02-03T09:05:34.423Z,47.82
2023-02-03T09:08:03.254Z,47.56
2023-02-03T09:10:31.518Z,46.21
2023-02-03T09:12:59.651Z,45.38
2023-02-03T09:15:27.752Z,45.53
2023-02-03T09:17:57.634Z,44.62
2023-02-03T09:20:26.914Z,43.46
2023-02-03T09:22:59.862Z,42.25
2023-02-03T09:25:27.904Z,39.80
2023-02-03T09:27:56.224Z,37.95
2023-02-03T09:30:24.874Z,36.34
2023-02-03T09:32:54.736Z,33.35
2023-02-03T09:35:23.167Z,33.45
2023-02-03T09:37:51.165Z,31.45
2023-02-03T09:40:24.999Z,31.11
2023-02-03T09:43:26.484Z,30.82
2023-02-03T09:45:54.527Z,32.23
2023-02-03T09:48:31.002Z,34.40
2023-02-03T09:50:58.994Z,35.75
2023-02-03T09:53:45.571Z,39.98
2023-02-03T09:56:26.246Z,44.20
2023-02-03T09:58:54.783Z,46.72
2023-02-03T10:01:28.403Z,47.18
2023-02-03T10:04:05.983Z,48.62
2023-02-03T10:06:40.812Z,47.84
2023-02-03T10:09:31.751Z,45.32
2023-02-03T10:12:18.080Z,42.04
2023-02-03T10:15:17.162Z,37.55
2023-02-03T10:17:57.990Z,36.74
2023-02-03T10:20:41.170Z,33.96
2023-02-03T10:23:20.834Z,31.27
2023-02-03T10:25:57.355Z,32.07
2023-02-03T10:28:31.067Z,33.13
2023-02-03T10:31:01.917Z,32.42
2023-02-03T10:33:32.068Z,33.05
2023-02-03T10:36:18.862Z,32.56
2023-02-03T10:39:23.938Z,33.44
2023-02-03T10:41:51.987Z,35.95
2023-02-03T10:44:20.495Z,38.04
2023-02-03T10:46:48.583Z,36.07
2023-02-03T10:49:19.190Z,33.71
2023-02-03T10:51:59.353Z,34.51
2023-02-03T10:54:41.425Z,31.98
2023-02-03T10:57:15.090Z,32.75
2023-02-03T10:59:45.951Z,32.73
2023-02-03T11:02:27.366Z,31.21
2023-02-03T11:05:16.879Z,31.05
2023-02-03T11:07:45.942Z,32.06
2023-02-03T11:10:41.052Z,30.38
2023-02-03T11:13:22.938Z,28.38
2023-02-03T11:16:06.323Z,26.31
2023-02-03T11:18:34.437Z,24.82
2023-02-03T11:21:09.062Z,25.52
2023-02-03T11:23:44.312Z,27.13
2023-02-03T11:26:15.393Z,29.67
2023-02-03T11:28:46.829Z,30.97
2023-02-03T11:31:27.305Z,34.08
2023-02-03T11:34:02.555Z,34.36
2023-02-03T11:36:33.094Z,35.70
2023-02-03T11:39:21.199Z,36.62
2023-02-03T11:41:49.516Z,36.16
2023-02-03T11:44:21.163Z,34.10
2023-02-03T11:46:54.713Z,34.09
2023-02-03T11:50:00.049Z,35.38
2023-02-03T11:52:34.091Z,37.06
2023-02-03T11:55:11.261Z,35.91
2023-02-03T11:57:52.597Z,35.25
2023-02-03T12:00:40.822Z,33.21
2023-02-03T12:03:29.991Z,34.11
2023-02-03T12:06:00.821Z,33.73
2023-02-03T12:08:39.803Z,35.73
2023-02-03T12:11:29.649Z,36.96
2023-02-03T12:14:03.169Z,34.74
2023-02-03T12:16:42.826Z,34.13
2023-02-03T12:19:26.570Z,33.70
2023-02-03T12:22:13.045Z,32.69
2023-02-03T12:24:53.468Z,34.16
2023-02-03T12:27:24.313Z,35.55
2023-02-03T12:30:04.831Z,37.84
2023-02-03T12:32:40.528Z,37.65
2023-02-03T12:35:23.487Z,38.26
2023-02-03T12:38:10.694Z,39.43
2023-02-03T12:41:02.062Z,38.62
2023-02-03T12:43:37.934Z,40.15
2023-02-03T12:46:18.565Z,40.38
2023-02-03T12:49:15.685Z,41.04
2023-02-03T12:51:52.657Z,41.06
2023-02-03T12:54:48.136Z,40.23
2023-02-03T12:57:22.497Z,39.94
2023-02-03T13:00:04.519Z,40.96
2023-02-03T13:02:42.164Z,40.32
2023-02-03T13:05:22.443Z,39.73
2023-02-03T13:07:58.394Z,40.36
2023-02-03T13:11:10.031Z,39.91
2023-02-03T13:13:47.896Z,40.99
2023-02-03T13:16:21.577Z,41.33
2023-02-03T13:18:56.070Z,40.20
2023-02-03T13:21:24.199Z,41.46
2023-02-03T13:23:52.469Z,42.63
2023-02-03T13:26:43.841Z,42.30
2023-02-03T13:29:12.161Z,42.85
2023-02-03T13:31:58.066Z,41.60
2023-02-03T13:34:57.918Z,40.99
2023-02-03T13:37:53.752Z,41.82
2023-02-03T13:40:55.644Z,42.33
2023-02-03T13:43:39.279Z,41.58
2023-02-03T13:46:26.710Z,42.45
2023-02-03T13:48:57.534Z,42.80
2023-02-03T13:51:36.272Z,43.28
2023-02-03T13:54:08.320Z,42.77
2023-02-03T13:56:37.418Z,43.34
2023-02-03T13:59:07.446Z,43.37
2023-02-03T14:01:36.215Z,44.36
2023-02-03T14:04:25.481Z,45.72
2023-02-03T14:06:53.699Z,45.94
2023-02-03T14:09:31.110Z,46.30
2023-02-03T14:12:19.664Z,46.02
2023-02-03T14:14:53.119Z,48.23
2023-02-03T14:17:36.157Z,47.51
2023-02-03T14:20:31.817Z,47.61
2023-02-03T14:23:06.052Z,48.14
2023-02-03T14:25:44.404Z,49.25
2023-02-03T14:28:20.535Z,48.80
2023-02-03T14:31:13.121Z,49.18
2023-02-03T14:33:57.732Z,50.13
2023-02-03T14:36:28.870Z,50.66
2023-02-03T14:39:01.830Z,51.38
2023-02-03T14:41:37.080Z,51.01
2023-02-03T14:44:44.248Z,50.00
2023-02-03T14:47:35.396Z,49.86
2023-02-03T14:50:15.821Z,50.75
2023-02-03T14:53:19.953Z,50.79
2023-02-03T14:56:12.755Z,50.88
2023-02-03T14:58:51.031Z,51.10
2023-02-03T15:01:37.672Z,51.25
2023-02-03T15:04:11.572Z,51.89
2023-02-03T15:06:41.331Z,51.81
2023-02-03T15:09:34.822Z,53.11
2023-02-03T15:12:04.134Z,52.77
2023-02-03T15:14:32.648Z,53.06
2023-02-03T15:17:03.892Z,52.17
2023-02-03T15:19:38.706Z,53.25
2023-02-03T15:22:23.465Z,54.25
2023-02-03T15:24:54.378Z,52.99
2023-02-03T15:27:29.264Z,51.94
2023-02-03T15:29:59.547Z,52.41
2023-02-03T15:32:34.573Z,52.33
2023-02-03T15:35:06.986Z,52.77
2023-02-03T15:37:46.774Z,54.08
2023-02-03T15:40:18.828Z,53.23
2023-02-03T15:42:50.125Z,53.70
2023-02-03T15:45:33.399Z,54.51
2023-02-03T15:48:39.415Z,55.67
2023-02-03T15:51:16.931Z,53.79
2023-02-03T15:54:30.512Z,55.18
2023-02-03T15:57:08.810Z,55.55
2023-02-03T15:59:43.069Z,55.83
2023-02-03T16:02:26.862Z,55.83
2023-02-03T16:04:55.234Z,57.38
2023-02-03T16:07:30.993Z,57.55
2023-02-03T16:10:00.469Z,57.34
2023-02-03T16:12:30.913Z,58.35
2023-02-03T16:15:01.490Z,58.16
2023-02-03T16:17:37.178Z,59.04
2023-02-03T16:20:11.521Z,59.11
2023-02-03T16:22:46.299Z,59.15
2023-02-03T16:25:27.410Z,58.96
2023-02-03T16:28:45.118Z,60.95
2023-02-03T16:31:37.807Z,59.83
2023-02-03T16:34:38.265Z,61.66
2023-02-03T16:38:02.160Z,63.06
2023-02-03T16:40:49.100Z,62.52
2023-02-03T16:43:36.483Z,60.97
2023-02-03T16:46:30.670Z,61.82
2023-02-03T16:49:17.532Z,61.95
2023-02-03T16:51:45.664Z,62.91
2023-02-03T16:54:15.237Z,61.80
2023-02-03T16:56:43.998Z,62.48
2023-02-03T16:59:12.825Z,63.44
2023-02-03T17:01:41.252Z,64.08
2023-02-03T17:04:11.364Z,64.53
2023-02-03T17:06:41.319Z,64.56
2023-02-03T17:09:09.751Z,65.39
2023-02-03T17:11:38.167Z,64.87
2023-02-03T17:14:06.994Z,65.12
2023-02-03T17:16:35.586Z,65.46
2023-02-03T17:19:03.791Z,66.46
2023-02-03T17:21:32.238Z,65.81
2023-02-03T17:24:00.841Z,64.79
2023-02-03T17:26:29.523Z,64.43
2023-02-03T17:29:03.575Z,64.24
2023-02-03T17:31:33.192Z,63.91
2023-02-03T17:34:04.740Z,63.95
2023-02-03T17:36:33.381Z,64.45
2023-02-03T17:55:33.906Z,66.26
2023-02-03T17:58:02.484Z,66.70
2023-02-03T18:00:31.683Z,66.88
2023-02-03T18:03:00.415Z,66.18
2023-02-03T18:05:29.977Z,67.33
2023-02-03T18:08:03.028Z,67.51
2023-02-03T18:10:37.478Z,67.91
2023-02-03T18:13:05.918Z,68.16
2023-02-03T18:15:34.653Z,67.58
2023-02-03T18:18:03.326Z,67.28
2023-02-03T18:20:32.059Z,68.08
2023-02-03T18:23:00.593Z,68.05
2023-02-03T18:25:29.308Z,68.27
2023-02-03T18:27:57.836Z,67.93
2023-02-03T18:30:26.509Z,68.49
2023-02-03T18:32:55.900Z,67.36
2023-02-03T18:35:24.424Z,67.29
2023-02-03T18:37:52.556Z,68.31
2023-02-03T18:40:21.012Z,68.71
2023-02-03T18:42:50.031Z,69.08
2023-02-03T18:45:18.501Z,69.43
2023-02-03T18:47:47.006Z,68.90
2023-02-03T18:50:15.807Z,69.23
2023-02-03T18:52:44.976Z,69.29
2023-02-03T18:55:13.485Z,69.58
2023-02-03T18:57:44.470Z,70.08
2023-02-03T19:00:14.581Z,68.88
2023-02-03T19:02:43.077Z,69.48
2023-02-03T19:05:12.090Z,69.19
2023-02-03T19:07:40.801Z,68.79
2023-02-03T19:10:09.608Z,70.26
2023-02-03T19:12:38.235Z,69.91
2023-02-03T19:15:07.008Z,70.44
2023-02-03T19:17:35.704Z,70.04
2023-02-03T19:20:04.982Z,70.73
2023-02-03T19:22:33.567Z,69.98
2023-02-03T19:25:03.691Z,70.16
2023-02-03T19:27:32.252Z,69.87
2023-02-03T19:30:00.585Z,70.59
2023-02-03T19:32:29.176Z,70.93
2023-02-03T19:34:57.653Z,71.41
2023-02-03T19:37:26.150Z,70.58
2023-02-03T19:39:54.545Z,69.60
2023-02-03T19:42:23.240Z,70.50
2023-02-03T19:44:51.964Z,71.22
2023-02-03T19:47:20.462Z,70.08
2023-02-03T19:49:49.092Z,69.76
2023-02-03T19:52:17.691Z,70.62
2023-02-03T19:54:46.436Z,70.24
2023-02-03T19:57:14.891Z,71.31
2023-02-03T19:59:43.338Z,71.04
2023-02-03T20:02:14.471Z,71.13
2023-02-03T20:04:44.542Z,70.86
2023-02-03T20:07:14.247Z,71.29
2023-02-03T20:09:42.913Z,70.78
2023-02-03T20:12:11.940Z,70.99
2023-02-03T20:14:40.429Z,70.03
2023-02-03T20:17:08.870Z,69.35
2023-02-03T20:19:37.619Z,69.18
2023-02-03T20:22:06.233Z,69.32
2023-02-03T20:24:35.230Z,68.65
2023-02-03T20:27:03.940Z,68.60
2023-02-03T20:29:32.223Z,69.72
2023-02-03T20:32:01.010Z,69.28
2023-02-03T20:34:29.668Z,70.24
2023-02-03T20:37:01.108Z,69.13
2023-02-03T20:39:29.865Z,68.61
2023-02-03T20:41:58.362Z,69.32
2023-02-03T20:44:26.871Z,69.40
2023-02-03T20:46:56.254Z,69.10
2023-02-03T20:49:24.871Z,69.06
2023-02-03T20:51:53.499Z,68.12
2023-02-03T20:54:22.939Z,67.81
2023-02-03T20:56:51.503Z,67.24
2023-02-03T20:59:20.324Z,66.82
2023-02-03T21:01:49.699Z,67.85
2023-02-03T21:04:38.274Z,67.06
2023-02-03T21:07:18.316Z,68.57
2023-02-03T21:09:47.040Z,68.44
2023-02-03T21:12:15.464Z,68.40
2023-02-03T21:14:52.138Z,67.59
2023-02-03T21:17:23.744Z,67.73
2023-02-03T21:19:53.713Z,67.01
2023-02-03T21:22:23.952Z,67.09
2023-02-03T21:24:54.999Z,66.34
2023-02-03T21:27:32.039Z,67.88
2023-02-03T21:30:28.656Z,66.51
2023-02-03T21:32:58.794Z,66.09
2023-02-03T21:35:35.176Z,67.37
2023-02-03T21:38:32.494Z,66.80
2023-02-03T21:41:02.252Z,67.60
2023-02-03T21:43:30.673Z,68.20
2023-02-03T21:45:59.119Z,67.86
2023-02-03T21:48:32.462Z,68.47
2023-02-03T21:51:04.128Z,67.98
2023-02-03T21:53:35.958Z,67.31
2023-02-03T21:56:36.477Z,67.21
2023-02-03T21:59:05.154Z,68.19
2023-02-03T22:01:37.780Z,68.38
2023-02-03T22:04:06.851Z,67.18
2023-02-03T22:06:40.855Z,67.52
2023-02-03T22:09:13.021Z,66.59
2023-02-03T22:11:41.519Z,67.39
2023-02-03T22:14:09.923Z,67.89
2023-02-03T22:16:38.003Z,66.89
2023-02-03T22:19:06.468Z,66.81
2023-02-03T22:21:35.092Z,66.45
2023-02-03T22:24:03.344Z,67.51
2023-02-03T22:26:31.667Z,66.38
2023-02-03T22:28:59.898Z,66.82
2023-02-03T22:31:28.088Z,66.98
2023-02-03T22:33:56.019Z,66.23
2023-02-03T22:36:24.252Z,65.45
2023-02-03T22:38:53.135Z,64.81
2023-02-03T22:41:21.786Z,64.92
2023-02-03T22:43:49.770Z,66.20
2023-02-03T22:46:17.961Z,65.92
2023-02-03T22:48:45.935Z,65.61
2023-02-03T22:51:14.043Z,64.59
2023-02-03T22:53:42.110Z,66.31
2023-02-03T22:56:10.048Z,65.75
2023-02-03T22:58:38.046Z,65.51
2023-02-03T23:01:06.158Z,65.32
2023-02-03T23:03:34.112Z,65.50
2023-02-03T23:06:02.184Z,65.81
2023-02-03T23:08:30.213Z,66.98
2023-02-03T23:10:58.949Z,65.67
2023-02-03T23:13:27.023Z,65.69
2023-02-03T23:15:54.918Z,65.33
2023-02-03T23:18:23.091Z,65.61
2023-02-03T23:20:51.135Z,65.86
2023-02-03T23:23:18.992Z,65.74
2023-02-03T23:25:46.912Z,65.87
2023-02-03T23:28:15.075Z,65.79
2023-02-03T23:30:43.175Z,65.71
2023-02-03T23:33:12.266Z,66.13
2023-02-03T23:35:46.141Z,65.70
2023-02-03T23:38:15.646Z,66.19
2023-02-03T23:40:43.852Z,66.16
2023-02-03T23:43:11.830Z,67.06
2023-02-03T23:45:40.304Z,67.55
2023-02-03T23:48:08.438Z,67.10
2023-02-03T23:50:36.330Z,67.89
2023-02-03T23:53:04.564Z,67.69
2023-02-03T23:55:32.671Z,68.08
2023-02-03T23:58:00.650Z,67.82
